Time;durP1;ratioP1;P1;durP2;ratioP2;P2;SDS_P1;SDS_P2;PMS_P1;PMS_P2;Temp;Humidity;BMP_temperature;BMP_pressure;BME280_temperature;BME280_humidity;BME280_pressure;Samples;Min_cycle;Max_cycle;Signal;HPM_P1;HPM_P2
2023/05/30 00:00:10;;;;;;;1.23;0.70;;;;;;;16.30;69.89;99579.19;5033255;28;20045;-73
2023/05/30 00:02:39;;;;;;;1.45;0.95;;;;;;;16.32;70.28;99577.41;5033098;28;20073;-73
2023/05/30 00:05:12;;;;;;;1.10;1.00;;;;;;;16.34;70.25;99580.81;5032894;28;20044;-73
2023/05/30 00:07:41;;;;;;;2.05;1.00;;;;;;;16.40;70.62;99575.50;5033042;28;20048;-73
2023/05/30 00:10:10;;;;;;;0.70;0.70;;;;;;;16.37;70.50;99575.56;5033336;28;20037;-73
2023/05/30 00:12:41;;;;;;;0.90;0.90;;;;;;;16.33;70.91;99585.13;5036541;28;20314;-73
2023/05/30 00:15:11;;;;;;;0.63;0.63;;;;;;;16.35;70.50;99575.63;5036553;28;20100;-73
2023/05/30 00:17:40;;;;;;;1.83;1.52;;;;;;;16.33;70.70;99574.81;5036492;28;20041;-73
2023/05/30 00:20:12;;;;;;;2.10;1.42;;;;;;;16.35;70.44;99582.50;5036441;28;20080;-73
2023/05/30 00:22:42;;;;;;;1.33;1.15;;;;;;;16.26;70.50;99587.88;5036468;28;20041;-73
2023/05/30 00:25:11;;;;;;;1.50;0.82;;;;;;;16.18;70.64;99589.78;5036280;28;20067;-73
2023/05/30 00:27:39;;;;;;;0.80;0.80;;;;;;;16.03;70.64;99575.56;5036265;28;20044;-73
2023/05/30 00:30:09;;;;;;;1.13;1.00;;;;;;;16.16;70.39;99596.72;5051965;28;20286;-73
2023/05/30 00:32:38;;;;;;;1.08;0.98;;;;;;;16.12;70.65;99584.81;5034989;28;20302;-73
2023/05/30 00:35:08;;;;;;;1.48;1.38;;;;;;;16.00;70.36;99586.78;5036243;28;20450;-73
2023/05/30 00:37:39;;;;;;;3.55;1.10;;;;;;;15.89;70.88;99586.22;5036518;28;20045;-73
2023/05/30 00:40:09;;;;;;;2.20;1.58;;;;;;;15.82;70.83;99589.81;5036459;28;20046;-73
2023/05/30 00:42:38;;;;;;;3.05;1.83;;;;;;;15.85;70.92;99589.75;5036335;28;20048;-73
2023/05/30 00:45:09;;;;;;;0.70;0.70;;;;;;;15.88;70.62;99583.69;5036211;28;20057;-73
2023/05/30 00:47:40;;;;;;;2.53;1.13;;;;;;;15.88;70.70;99586.25;5035779;28;20507;-73
2023/05/30 00:50:09;;;;;;;2.13;1.33;;;;;;;15.79;70.88;99584.72;5036165;28;20573;-73
2023/05/30 00:52:40;;;;;;;0.93;0.90;;;;;;;15.70;70.94;99578.94;5036113;28;20037;-73
2023/05/30 00:55:09;;;;;;;0.68;0.68;;;;;;;15.67;71.09;99585.00;5018719;28;20423;-72
2023/05/30 00:57:39;;;;;;;1.08;0.98;;;;;;;15.59;71.14;99588.66;5051159;28;20049;-72
2023/05/30 01:00:12;;;;;;;1.15;0.80;;;;;;;15.62;70.83;99586.00;5036579;28;20049;-72
2023/05/30 01:02:41;;;;;;;0.80;0.80;;;;;;;15.60;70.89;99596.31;5035969;28;20050;-71
2023/05/30 01:05:12;;;;;;;0.93;0.88;;;;;;;15.62;71.04;99589.41;5035002;28;20049;-70
2023/05/30 01:07:44;;;;;;;3.90;1.02;;;;;;;15.57;71.36;99595.56;5035627;28;20060;-71
2023/05/30 01:10:16;;;;;;;0.82;0.82;;;;;;;15.55;71.27;99592.19;5034946;28;20095;-72
2023/05/30 01:12:52;;;;;;;0.75;0.75;;;;;;;15.64;70.92;99592.81;5035502;28;20049;-72
2023/05/30 01:15:25;;;;;;;1.17;0.80;;;;;;;15.72;70.53;99593.47;5035425;28;20038;-73
2023/05/30 01:18:01;;;;;;;1.40;1.30;;;;;;;15.74;70.66;99598.59;5035544;28;20041;-71
2023/05/30 01:20:36;;;;;;;2.53;1.95;;;;;;;15.61;70.82;99585.16;5035676;28;20064;-71
2023/05/30 01:23:20;;;;;;;8.82;1.30;;;;;;;15.62;71.14;99598.88;5034683;28;20515;-72
2023/05/30 01:26:05;;;;;;;2.30;1.55;;;;;;;15.59;70.69;99602.38;5034150;28;20096;-71
2023/05/30 01:28:38;;;;;;;1.30;1.13;;;;;;;15.46;71.24;99603.50;5050596;28;20044;-71
2023/05/30 01:31:09;;;;;;;1.75;1.50;;;;;;;15.32;70.75;99577.19;5035173;28;20095;-71
2023/05/30 01:33:40;;;;;;;1.48;1.05;;;;;;;15.45;71.09;99600.97;5035076;28;20060;-71
2023/05/30 01:36:10;;;;;;;1.90;1.67;;;;;;;15.36;71.88;99601.97;5034326;28;20487;-71
2023/05/30 01:38:39;;;;;;;1.88;1.02;;;;;;;15.36;72.11;99601.97;5035343;28;20045;-71
2023/05/30 01:41:15;;;;;;;1.25;1.15;;;;;;;15.30;72.03;99595.25;5033862;28;20045;-71
2023/05/30 01:43:52;;;;;;;1.85;1.70;;;;;;;15.34;71.96;99599.44;5033966;28;20045;-71
2023/05/30 01:46:30;;;;;;;1.30;1.23;;;;;;;15.35;71.70;99585.72;5034662;28;20065;-69
2023/05/30 01:49:11;;;;;;;1.00;0.90;;;;;;;15.41;71.81;99595.00;5034825;28;20045;-71
2023/05/30 01:51:45;;;;;;;1.58;1.05;;;;;;;15.36;71.50;99586.53;5033948;28;20056;-70
2023/05/30 01:54:17;;;;;;;1.45;0.95;;;;;;;15.45;70.90;99591.53;5034694;28;20050;-72
2023/05/30 01:56:51;;;;;;;2.78;1.08;;;;;;;15.38;71.09;99595.06;5034862;28;20368;-72
2023/05/30 01:59:25;;;;;;;1.10;0.88;;;;;;;15.33;71.53;99592.59;5035238;28;20046;-72
2023/05/30 02:01:55;;;;;;;2.55;1.95;;;;;;;15.28;71.18;99591.84;5033480;28;20041;-70
2023/05/30 02:04:25;;;;;;;0.95;0.93;;;;;;;15.27;71.27;99597.03;5034780;28;20049;-71
2023/05/30 02:06:54;;;;;;;2.35;1.50;;;;;;;15.30;70.86;99599.53;5034473;28;20048;-71
2023/05/30 02:09:26;;;;;;;2.35;1.70;;;;;;;15.37;70.77;99598.53;5034742;28;20095;-71
2023/05/30 02:11:55;;;;;;;2.30;1.27;;;;;;;15.35;70.24;99590.00;5033515;28;20065;-71
2023/05/30 02:14:25;;;;;;;1.23;1.13;;;;;;;15.39;69.87;99586.47;5034295;28;20045;-71
2023/05/30 02:16:55;;;;;;;1.23;1.13;;;;;;;15.39;70.07;99589.03;5033136;28;20109;-72
2023/05/30 02:19:24;;;;;;;;;;;;;;;15.37;70.21;99588.25;5034924;28;20172;-70
2023/05/30 02:21:53;;;;;;;1.25;1.15;;;;;;;15.29;70.70;99595.25;5034210;28;20398;-70
2023/05/30 02:24:22;;;;;;;1.85;1.25;;;;;;;15.24;71.20;99591.94;5033130;28;20076;-70
2023/05/30 02:26:54;;;;;;;1.20;0.93;;;;;;;15.23;71.47;99595.41;5034080;28;20050;-71
2023/05/30 02:29:25;;;;;;;1.97;1.77;;;;;;;15.21;70.89;99587.69;5034031;28;20050;-72
2023/05/30 02:31:54;;;;;;;0.75;0.75;;;;;;;15.14;70.54;99590.47;5034688;28;20427;-72
2023/05/30 02:34:23;;;;;;;2.07;1.33;;;;;;;15.11;70.53;99595.66;5033893;28;20117;-71
2023/05/30 02:36:52;;;;;;;;;;;;;;;14.99;70.71;99601.91;5034258;28;20283;-72
2023/05/30 02:39:21;;;;;;;1.08;0.98;;;;;;;15.11;70.91;99600.78;5033894;28;19928;-72
2023/05/30 02:41:50;;;;;;;1.42;1.05;;;;;;;15.13;71.04;99593.91;5049286;28;20046;-71
2023/05/30 02:44:20;;;;;;;8.43;1.42;;;;;;;15.04;71.38;99596.66;5032697;28;20053;-72
2023/05/30 02:46:50;;;;;;;1.00;0.90;;;;;;;14.93;71.82;99594.28;5032402;28;20061;-73
2023/05/30 02:49:20;;;;;;;1.55;1.45;;;;;;;14.92;71.94;99602.03;5032795;28;20103;-71
2023/05/30 02:51:50;;;;;;;0.85;0.80;;;;;;;14.90;72.42;99606.38;5033761;28;20132;-71
2023/05/30 02:54:23;;;;;;;4.57;1.45;;;;;;;14.84;72.73;99609.03;5033747;28;20052;-72
2023/05/30 02:57:04;;;;;;;0.95;0.93;;;;;;;14.81;72.68;99606.53;5033981;28;20069;-72
2023/05/30 02:59:54;;;;;;;2.35;1.60;;;;;;;14.77;72.89;99606.59;4993259;28;20084;-73
2023/05/30 03:02:25;;;;;;;0.60;0.60;;;;;;;14.81;73.04;99611.66;5033977;28;20563;-71
2023/05/30 03:04:54;;;;;;;1.45;1.20;;;;;;;14.83;72.56;99615.06;5049219;28;20440;-73
2023/05/30 03:07:26;;;;;;;0.83;0.83;;;;;;;14.91;72.20;99608.03;5033497;28;20045;-73
2023/05/30 03:09:56;;;;;;;11.93;1.45;;;;;;;14.92;72.75;99613.19;5033278;28;20365;-73
2023/05/30 03:12:24;;;;;;;1.43;1.33;;;;;;;14.95;72.46;99615.66;5033795;28;20128;-73
2023/05/30 03:14:53;;;;;;;0.80;0.80;;;;;;;14.98;72.65;99613.03;5032562;28;20398;-73
2023/05/30 03:17:23;;;;;;;2.30;1.07;;;;;;;15.04;72.49;99619.78;5032473;28;20087;-72
2023/05/30 03:19:54;;;;;;;0.68;0.68;;;;;;;15.00;71.66;99611.28;5032532;28;20411;-72
2023/05/30 03:22:23;;;;;;;2.92;1.63;;;;;;;15.06;71.10;99623.19;5033405;28;20049;-73
2023/05/30 03:24:53;;;;;;;;;;;;;;;15.09;71.19;99617.97;5034004;28;20206;-73
2023/05/30 03:27:24;;;;;;;1.25;1.10;;;;;;;15.13;71.26;99615.31;5033314;28;19921;-73
2023/05/30 03:29:53;;;;;;;1.10;1.00;;;;;;;15.16;71.76;99619.56;5048644;28;20040;-73
2023/05/30 03:32:22;;;;;;;1.38;1.00;;;;;;;15.16;71.60;99624.69;5033246;28;20037;-73
2023/05/30 03:34:52;;;;;;;1.05;0.98;;;;;;;15.13;71.67;99617.88;5032102;28;20140;-73
2023/05/30 03:37:24;;;;;;;2.42;1.67;;;;;;;15.11;71.50;99616.22;5049206;28;20121;-73
2023/05/30 03:39:53;;;;;;;2.67;1.57;;;;;;;15.14;71.72;99629.03;5033224;28;20079;-73
2023/05/30 03:42:23;;;;;;;3.10;1.90;;;;;;;15.10;71.95;99624.78;5033541;28;20115;-73
2023/05/30 03:44:51;;;;;;;0.87;0.60;;;;;;;15.13;72.05;99629.88;5033165;28;20133;-73
2023/05/30 03:47:20;;;;;;;1.47;1.00;;;;;;;15.19;71.73;99634.91;5036984;28;20320;-73
2023/05/30 03:49:49;;;;;;;1.10;1.00;;;;;;;15.14;72.16;99631.59;5036135;28;20406;-73
2023/05/30 03:52:20;;;;;;;1.80;1.70;;;;;;;15.10;72.09;99633.38;5037067;28;20043;-73
2023/05/30 03:54:48;;;;;;;0.93;0.93;;;;;;;15.21;72.00;99636.56;5035783;28;20585;-73
2023/05/30 03:57:17;;;;;;;6.05;1.25;;;;;;;15.33;71.76;99648.34;5036881;28;20037;-73
2023/05/30 03:59:47;;;;;;;1.50;1.40;;;;;;;15.41;71.17;99651.59;5037113;28;20038;-73
2023/05/30 04:02:16;;;;;;;;;;;;;;;15.52;70.80;99644.53;5037336;28;20278;-74
2023/05/30 04:04:45;;;;;;;1.42;1.02;;;;;;;15.45;70.44;99637.84;5036781;28;19921;-73
2023/05/30 04:07:15;;;;;;;3.17;2.20;;;;;;;15.54;69.90;99637.63;5036737;28;20064;-73
2023/05/30 04:09:45;;;;;;;1.60;1.33;;;;;;;15.66;69.37;99639.94;5036649;28;20045;-73
2023/05/30 04:12:14;;;;;;;2.92;1.02;;;;;;;15.73;68.79;99638.94;5052101;28;20133;-73
2023/05/30 04:14:43;;;;;;;4.40;1.13;;;;;;;15.85;68.62;99645.53;5036663;28;20037;-73
2023/05/30 04:17:14;;;;;;;3.85;2.00;;;;;;;15.96;68.52;99646.97;5036543;28;20080;-72
2023/05/30 04:19:46;;;;;;;1.38;1.23;;;;;;;16.06;68.24;99653.59;5036477;28;20053;-73
2023/05/30 04:22:15;;;;;;;0.80;0.77;;;;;;;16.17;67.50;99650.78;5036446;28;20072;-73
2023/05/30 04:24:47;;;;;;;2.60;1.10;;;;;;;16.20;67.04;99650.69;5036463;28;20049;-74
2023/05/30 04:27:17;;;;;;;1.55;1.00;;;;;;;16.27;66.85;99641.91;5035655;28;20492;-73
2023/05/30 04:29:47;;;;;;;0.73;0.73;;;;;;;16.34;66.33;99647.78;5036334;28;20045;-74
2023/05/30 04:32:16;;;;;;;3.38;1.55;;;;;;;16.31;65.89;99642.72;5052071;28;20137;-74
2023/05/30 04:34:45;;;;;;;1.13;1.02;;;;;;;16.33;66.09;99656.41;5051877;28;20101;-74
2023/05/30 04:37:17;;;;;;;2.05;1.85;;;;;;;16.39;65.72;99656.22;5036245;28;20049;-73
2023/05/30 04:39:48;;;;;;;0.82;0.77;;;;;;;16.43;65.41;99657.88;5036108;28;20056;-73
2023/05/30 04:42:17;;;;;;;0.90;0.90;;;;;;;16.42;65.72;99641.56;5051514;28;20099;-74
2023/05/30 04:44:47;;;;;;;0.70;0.70;;;;;;;16.50;65.68;99654.25;5034942;28;20073;-74
2023/05/30 04:47:21;;;;;;;0.52;0.52;;;;;;;16.59;65.60;99654.03;5035811;28;20295;-74
2023/05/30 04:49:53;;;;;;;1.85;1.40;;;;;;;16.83;65.48;99652.56;5036444;28;20558;-74
2023/05/30 04:52:23;;;;;;;1.83;1.63;;;;;;;16.82;65.08;99628.50;5051558;28;20057;-73
2023/05/30 04:54:55;;;;;;;1.50;1.40;;;;;;;17.11;64.89;99658.66;5036458;28;20045;-73
2023/05/30 04:57:24;;;;;;;1.42;1.33;;;;;;;17.15;64.11;99634.50;5036068;28;20049;-73
2023/05/30 04:59:54;;;;;;;1.83;1.13;;;;;;;17.36;63.40;99652.78;5035975;28;20049;-73
2023/05/30 05:02:23;;;;;;;0.67;0.67;;;;;;;17.50;62.82;99651.53;5051496;28;20111;-73
2023/05/30 05:04:53;;;;;;;1.90;1.38;;;;;;;17.70;62.61;99646.66;5035782;28;20061;-73
2023/05/30 05:07:22;;;;;;;1.52;0.93;;;;;;;17.82;61.44;99649.72;5035547;28;20041;-74
2023/05/30 05:10:10;;;;;;;2.08;0.70;;;;;;;17.91;60.29;99646.84;5035548;28;20045;-74
2023/05/30 05:12:39;;;;;;;0.70;0.70;;;;;;;17.96;60.19;99647.56;5035578;28;20095;-74
2023/05/30 05:15:09;;;;;;;1.23;0.97;;;;;;;18.12;59.89;99653.06;5035447;28;20042;-74
2023/05/30 05:17:38;;;;;;;0.57;0.57;;;;;;;18.20;59.60;99658.84;5035698;28;20050;-74
2023/05/30 05:20:07;;;;;;;1.17;1.08;;;;;;;18.31;59.34;99650.78;5035381;28;20084;-74
2023/05/30 05:22:40;;;;;;;2.85;1.65;;;;;;;18.40;58.85;99648.72;5034151;28;20049;-73
2023/05/30 05:25:11;;;;;;;0.77;0.77;;;;;;;18.51;58.75;99657.00;5035305;28;20095;-73
2023/05/30 05:27:41;;;;;;;0.88;0.82;;;;;;;18.58;58.12;99655.88;5035176;28;20075;-74
2023/05/30 05:30:11;;;;;;;0.88;0.85;;;;;;;18.66;57.83;99661.66;5035483;28;20041;-74
2023/05/30 05:32:39;;;;;;;;;;;;;;;18.74;57.34;99659.63;5035503;28;20050;-74
2023/05/30 05:35:09;;;;;;;0.63;0.63;;;;;;;18.82;57.06;99658.53;5035391;28;20313;-73
2023/05/30 05:37:39;;;;;;;3.05;1.08;;;;;;;18.93;56.68;99664.19;5035009;28;20329;-74
2023/05/30 05:40:10;;;;;;;1.02;0.93;;;;;;;18.92;56.47;99662.50;5034959;28;20038;-73
2023/05/30 05:42:39;;;;;;;5.88;0.98;;;;;;;18.98;56.48;99668.28;5035004;28;20503;-74
2023/05/30 05:45:09;;;;;;;1.57;1.17;;;;;;;19.11;56.50;99668.72;5034872;28;20041;-75
2023/05/30 05:47:38;;;;;;;1.15;1.05;;;;;;;19.14;56.65;99669.47;5034736;28;20302;-74
2023/05/30 05:50:08;;;;;;;1.05;0.98;;;;;;;19.25;56.57;99667.31;5034799;28;20132;-74
2023/05/30 05:52:37;;;;;;;1.10;1.00;;;;;;;19.45;56.47;99669.22;5034956;28;20041;-74
2023/05/30 05:55:07;;;;;;;0.67;0.67;;;;;;;19.50;56.25;99667.31;5035277;28;20064;-72
2023/05/30 05:57:37;;;;;;;;;;;;;;;19.55;56.15;99674.91;5035363;28;20271;-73
2023/05/30 06:00:07;;;;;;;0.75;0.75;;;;;;;19.62;56.24;99677.22;5034579;28;19920;-73
2023/05/30 06:02:42;;;;;;;0.63;0.60;;;;;;;19.74;55.79;99670.72;5034595;28;20050;-75
2023/05/30 06:05:11;;;;;;;;;;;;;;;19.85;55.98;99663.38;5035211;28;20392;-73
2023/05/30 06:07:40;;;;;;;1.15;1.00;;;;;;;19.97;55.59;99668.91;5034396;28;19921;-71
2023/05/30 06:10:10;;;;;;;1.25;1.02;;;;;;;20.01;55.14;99665.28;5034226;28;20048;-74
2023/05/30 06:12:40;;;;;;;0.50;0.50;;;;;;;20.14;54.81;99664.81;5034670;28;20049;-73
2023/05/30 06:15:12;;;;;;;0.80;0.75;;;;;;;20.29;55.33;99667.69;5034319;28;20096;-74
2023/05/30 06:17:42;;;;;;;0.70;0.70;;;;;;;20.48;55.44;99665.19;5034519;28;20042;-73
2023/05/30 06:20:11;;;;;;;1.25;0.95;;;;;;;20.45;54.98;99667.88;5034166;28;20120;-72
2023/05/30 06:22:41;;;;;;;1.15;1.05;;;;;;;20.65;54.84;99673.09;5034767;28;20391;-72
2023/05/30 06:25:10;;;;;;;2.00;1.40;;;;;;;20.68;54.02;99678.19;5033625;28;20051;-76
2023/05/30 06:27:40;;;;;;;0.98;0.50;;;;;;;20.62;54.15;99647.28;5034243;28;20287;-74
2023/05/30 06:30:10;;;;;;;0.65;0.65;;;;;;;20.89;54.06;99673.81;5034248;28;20072;-74
2023/05/30 06:32:39;;;;;;;1.52;1.15;;;;;;;20.86;54.06;99682.56;5034319;28;20041;-74
2023/05/30 06:35:08;;;;;;;0.95;0.90;;;;;;;20.99;54.20;99683.75;5033990;28;20053;-73
2023/05/30 06:37:37;;;;;;;1.25;1.05;;;;;;;21.03;54.38;99690.50;5033846;28;20049;-73
2023/05/30 06:40:08;;;;;;;0.50;0.50;;;;;;;21.15;54.01;99684.78;5033812;28;20038;-72
2023/05/30 06:42:37;;;;;;;2.20;2.00;;;;;;;21.08;54.06;99683.38;5033955;28;20041;-74
2023/05/30 06:45:08;;;;;;;0.50;0.50;;;;;;;21.17;54.72;99690.75;5033994;28;20048;-75
2023/05/30 06:47:37;;;;;;;14.93;1.02;;;;;;;21.28;54.59;99685.94;5033370;28;20053;-73
2023/05/30 06:50:08;;;;;;;1.40;1.20;;;;;;;21.28;54.27;99683.34;5033991;28;20364;-74
2023/05/30 06:52:37;;;;;;;0.55;0.55;;;;;;;21.35;53.67;99682.16;5033754;28;20053;-74
2023/05/30 06:55:06;;;;;;;1.17;0.98;;;;;;;21.44;53.48;99685.25;5032553;28;20099;-73
2023/05/30 06:57:37;;;;;;;1.85;0.82;;;;;;;21.52;54.14;99677.97;5033401;28;20442;-73
2023/05/30 07:00:10;;;;;;;0.88;0.88;;;;;;;21.56;54.19;99674.31;5024203;28;20131;-73
2023/05/30 07:02:38;;;;;;;2.13;1.50;;;;;;;21.58;53.71;99688.06;5029839;28;20048;-74
2023/05/30 07:05:08;;;;;;;1.10;1.00;;;;;;;21.71;53.68;99684.00;5034902;28;20064;-77
2023/05/30 07:07:39;;;;;;;1.33;1.08;;;;;;;21.79;53.69;99687.09;5033317;28;20652;-74
2023/05/30 07:10:09;;;;;;;0.73;0.73;;;;;;;21.86;53.71;99675.53;5033481;28;20057;-72
2023/05/30 07:12:38;;;;;;;2.05;1.10;;;;;;;21.91;53.63;99682.19;5033035;28;20045;-74
2023/05/30 07:15:09;;;;;;;;;;;;;;;21.90;53.84;99684.88;5034047;28;20041;-73
2023/05/30 07:17:38;;;;;;;0.85;0.85;;;;;;;21.90;53.73;99687.47;5033689;28;19927;-74
2023/05/30 07:20:08;;;;;;;1.98;1.52;;;;;;;22.04;53.53;99682.47;5034003;28;20137;-72
2023/05/30 07:22:38;;;;;;;15.55;1.77;;;;;;;22.29;52.98;99682.97;5037880;28;20108;-73
2023/05/30 07:25:08;;;;;;;1.70;1.08;;;;;;;22.48;50.03;99683.75;5037599;28;20100;-73
2023/05/30 07:27:37;;;;;;;0.60;0.60;;;;;;;22.66;48.65;99680.28;5037605;28;20037;-74
2023/05/30 07:30:09;;;;;;;0.98;0.70;;;;;;;22.86;47.41;99679.28;5037485;28;20049;-74
2023/05/30 07:32:38;;;;;;;1.05;1.00;;;;;;;22.95;46.39;99684.03;5037369;28;20092;-75
2023/05/30 07:35:07;;;;;;;1.35;1.15;;;;;;;23.01;46.02;99682.88;5037650;28;20030;-73
2023/05/30 07:37:37;;;;;;;0.85;0.77;;;;;;;23.06;46.61;99676.50;5037230;28;20041;-73
2023/05/30 07:40:07;;;;;;;0.80;0.80;;;;;;;23.03;46.47;99681.03;5037349;28;20045;-74
2023/05/30 07:42:37;;;;;;;1.10;1.00;;;;;;;23.01;46.16;99681.09;5037437;28;20398;-75
2023/05/30 07:45:09;;;;;;;0.88;0.70;;;;;;;22.98;45.83;99680.44;5037514;28;20097;-71
2023/05/30 07:47:38;;;;;;;0.55;0.55;;;;;;;22.93;45.40;99685.03;5036847;28;20133;-73
2023/05/30 07:50:08;;;;;;;2.25;0.98;;;;;;;22.98;44.95;99688.22;5036990;28;20044;-73
2023/05/30 07:52:37;;;;;;;1.05;0.90;;;;;;;23.03;44.67;99686.25;5037067;28;20073;-75
2023/05/30 07:55:07;;;;;;;1.23;1.13;;;;;;;23.09;44.82;99685.91;5037175;28;20038;-75
2023/05/30 07:57:35;;;;;;;;;;;;;;;23.22;44.57;99687.81;5037899;28;20041;-75
2023/05/30 08:00:08;;;;;;;0.57;0.57;;;;;;;23.25;43.54;99681.59;5036853;28;19925;-72
2023/05/30 08:02:44;;;;;;;0.85;0.85;;;;;;;23.34;43.63;99681.13;5037168;28;20076;-74
2023/05/30 08:05:14;;;;;;;1.20;1.10;;;;;;;23.22;43.42;99681.75;5037017;28;20107;-75
2023/05/30 08:07:53;;;;;;;1.10;1.00;;;;;;;23.23;43.62;99678.22;5036718;28;20055;-75
2023/05/30 08:10:22;;;;;;;0.80;0.80;;;;;;;23.27;43.89;99685.78;5036770;28;20041;-75
2023/05/30 08:12:52;;;;;;;0.75;0.75;;;;;;;23.27;43.80;99679.75;5036646;28;20117;-74
2023/05/30 08:15:21;;;;;;;2.05;1.23;;;;;;;23.42;43.91;99688.56;5036198;28;20132;-75
2023/05/30 08:17:56;;;;;;;1.10;1.00;;;;;;;23.49;43.77;99675.09;5035291;28;20049;-74
2023/05/30 08:20:28;;;;;;;1.90;0.98;;;;;;;23.51;43.58;99690.69;5036516;28;20140;-74
2023/05/30 08:22:58;;;;;;;1.50;0.82;;;;;;;23.41;44.10;99687.72;5036740;28;20483;-74
2023/05/30 08:25:32;;;;;;;0.52;0.52;;;;;;;23.39;44.31;99679.16;5036676;28;20076;-75
2023/05/30 08:28:02;;;;;;;0.60;0.60;;;;;;;23.44;44.10;99684.97;5036390;28;20048;-71
2023/05/30 08:30:32;;;;;;;0.77;0.77;;;;;;;23.50;44.09;99692.44;5036216;28;20099;-74
2023/05/30 08:33:07;;;;;;;1.48;1.38;;;;;;;23.51;44.68;99688.91;5035923;28;20048;-74
2023/05/30 08:35:36;;;;;;;1.45;1.17;;;;;;;23.55;44.89;99687.81;5036278;28;20057;-75
2023/05/30 08:38:05;;;;;;;1.13;1.02;;;;;;;23.66;45.11;99695.91;5036432;28;20041;-75
2023/05/30 08:40:35;;;;;;;1.17;1.07;;;;;;;23.65;45.29;99686.41;5036450;28;20091;-75
2023/05/30 08:43:04;;;;;;;0.93;0.88;;;;;;;23.53;44.59;99691.44;5036342;28;20108;-74
2023/05/30 08:45:33;;;;;;;0.80;0.80;;;;;;;23.50;44.32;99695.03;5036125;28;20033;-73
2023/05/30 08:48:06;;;;;;;0.40;0.40;;;;;;;23.48;44.60;99694.28;5035892;28;20056;-73
2023/05/30 08:50:37;;;;;;;1.88;1.08;;;;;;;23.45;44.88;99691.84;5035951;28;20132;-73
2023/05/30 08:53:10;;;;;;;1.08;0.98;;;;;;;23.43;44.73;99688.47;5036348;28;20069;-75
2023/05/30 08:55:43;;;;;;;1.33;1.00;;;;;;;23.46;45.12;99698.75;5035865;28;20053;-72
2023/05/30 08:58:20;;;;;;;1.05;0.77;;;;;;;23.51;44.91;99694.13;5035875;28;20080;-74
2023/05/30 09:00:51;;;;;;;0.88;0.82;;;;;;;23.51;44.63;99688.91;5035766;28;20046;-74
2023/05/30 09:03:23;;;;;;;1.70;1.02;;;;;;;23.49;44.74;99695.13;5035958;28;20045;-74
2023/05/30 09:05:54;;;;;;;0.70;0.70;;;;;;;23.49;44.47;99695.94;5035680;28;20407;-74
2023/05/30 09:08:25;;;;;;;1.58;0.73;;;;;;;23.62;44.70;99699.59;5035491;28;20483;-74
2023/05/30 09:10:55;;;;;;;0.60;0.60;;;;;;;23.70;44.77;99702.66;5035714;28;20095;-74
2023/05/30 09:13:24;;;;;;;0.90;0.90;;;;;;;23.74;44.04;99693.72;5035528;28;20053;-72
2023/05/30 09:15:53;;;;;;;3.65;1.63;;;;;;;23.80;43.21;99693.38;5035843;28;20120;-74
2023/05/30 09:18:23;;;;;;;1.42;1.33;;;;;;;23.81;42.93;99705.50;5035421;28;20041;-74
2023/05/30 09:20:52;;;;;;;0.80;0.80;;;;;;;23.82;42.70;99699.38;5036006;28;20049;-74
2023/05/30 09:23:22;;;;;;;0.65;0.65;;;;;;;23.77;42.88;99701.38;5035393;28;20136;-74
2023/05/30 09:25:51;;;;;;;;;;;;;;;23.88;43.20;99699.03;5035918;28;20052;-75
2023/05/30 09:28:25;;;;;;;0.75;0.60;;;;;;;23.87;42.88;99697.31;5035457;28;20388;-73
2023/05/30 09:30:55;;;;;;;0.60;0.60;;;;;;;23.87;42.82;99697.31;5035165;28;20060;-74
2023/05/30 09:33:45;;;;;;;0.70;0.70;;;;;;;23.90;42.69;99697.16;5035439;28;20045;-74
2023/05/30 09:36:15;;;;;;;4.50;0.88;;;;;;;23.92;42.75;99700.53;5035172;28;20050;-73
2023/05/30 09:38:54;;;;;;;1.33;1.02;;;;;;;24.00;41.56;99698.34;5035321;28;20431;-74
2023/05/30 09:41:23;;;;;;;1.13;0.98;;;;;;;24.06;41.22;99696.34;5035653;28;20046;-72
2023/05/30 09:43:54;;;;;;;1.92;1.15;;;;;;;24.13;40.68;99698.56;5034322;28;20395;-74
2023/05/30 09:46:23;;;;;;;2.58;0.70;;;;;;;24.13;40.86;99702.91;5035057;28;20049;-74
2023/05/30 09:48:55;;;;;;;0.75;0.70;;;;;;;24.25;40.88;99704.84;5034990;28;20037;-75
2023/05/30 09:51:26;;;;;;;1.90;1.25;;;;;;;24.41;40.70;99692.59;5034919;28;20120;-75
2023/05/30 09:53:57;;;;;;;2.95;2.10;;;;;;;24.58;40.66;99702.91;5035098;28;20049;-72
2023/05/30 09:56:38;;;;;;;3.08;1.83;;;;;;;24.92;41.14;99700.06;5034673;28;20136;-74
2023/05/30 09:59:09;;;;;;;1.35;1.13;;;;;;;25.06;39.54;99700.09;5034741;28;20133;-73
2023/05/30 10:01:41;;;;;;;3.53;1.88;;;;;;;25.07;38.41;99700.94;5034925;28;20057;-74
2023/05/30 10:04:16;;;;;;;0.60;0.60;;;;;;;25.28;38.20;99697.88;5034784;28;20045;-75
2023/05/30 10:06:47;;;;;;;0.50;0.50;;;;;;;25.47;37.95;99696.78;5034757;28;20438;-75
2023/05/30 10:09:17;;;;;;;2.80;1.98;;;;;;;25.57;37.92;99692.66;5034344;28;20045;-74
2023/05/30 10:11:46;;;;;;;0.65;0.65;;;;;;;25.62;37.81;99701.06;5034448;28;20045;-75
2023/05/30 10:14:15;;;;;;;1.35;1.25;;;;;;;25.68;37.64;99695.44;5034603;28;20053;-76
2023/05/30 10:16:48;;;;;;;0.52;0.50;;;;;;;25.84;37.60;99691.75;5034631;28;20180;-75
2023/05/30 10:19:26;;;;;;;1.38;1.27;;;;;;;25.98;36.99;99685.69;5034307;28;20499;-73
2023/05/30 10:21:56;;;;;;;0.43;0.43;;;;;;;26.14;36.71;99694.25;5034569;28;20057;-74
2023/05/30 10:24:30;;;;;;;0.70;0.70;;;;;;;26.29;36.26;99688.03;5034285;28;20288;-74
2023/05/30 10:27:03;;;;;;;0.95;0.95;;;;;;;26.38;36.14;99692.66;5034161;28;20037;-76
2023/05/30 10:29:38;;;;;;;0.80;0.80;;;;;;;26.56;36.29;99680.97;5034016;28;20100;-74
2023/05/30 10:32:09;;;;;;;0.88;0.88;;;;;;;26.78;35.94;99684.84;5034012;28;20045;-74
2023/05/30 10:34:44;;;;;;;0.95;0.80;;;;;;;26.73;35.39;99686.88;5034534;28;20111;-74
2023/05/30 10:37:13;;;;;;;2.88;1.00;;;;;;;26.55;34.95;99687.16;5034617;28;20095;-73
2023/05/30 10:39:55;;;;;;;1.58;1.23;;;;;;;26.54;35.85;99677.63;5033906;28;20053;-76
2023/05/30 10:42:31;;;;;;;1.65;1.30;;;;;;;26.74;35.65;99683.31;5033042;28;20132;-75
2023/05/30 10:45:11;;;;;;;0.80;0.75;;;;;;;26.77;35.15;99677.91;5033785;28;20115;-76
2023/05/30 10:47:46;;;;;;;0.57;0.57;;;;;;;26.95;35.17;99671.41;5033642;28;20119;-76
2023/05/30 10:50:24;;;;;;;0.55;0.55;;;;;;;27.22;34.95;99669.53;5033730;28;20069;-75
2023/05/30 10:52:55;;;;;;;0.88;0.88;;;;;;;27.45;35.38;99681.09;5033699;28;20049;-77
2023/05/30 10:55:24;;;;;;;0.73;0.70;;;;;;;27.53;34.68;99668.25;5033923;28;20038;-76
2023/05/30 10:57:54;;;;;;;0.60;0.60;;;;;;;27.13;34.41;99617.75;5033910;28;20060;-74
2023/05/30 11:00:24;;;;;;;0.90;0.75;;;;;;;27.28;33.47;99677.81;5033725;28;20064;-75
2023/05/30 11:02:54;;;;;;;2.75;1.40;;;;;;;27.30;33.17;99674.25;5033909;28;20132;-75
2023/05/30 11:05:30;;;;;;;1.17;0.82;;;;;;;27.37;33.78;99668.47;5033900;28;20076;-75
2023/05/30 11:07:59;;;;;;;2.40;1.20;;;;;;;27.24;33.49;99662.41;5033769;28;20049;-73
2023/05/30 11:10:29;;;;;;;;;;;;;;;27.28;33.86;99663.88;5033815;28;20044;-76
2023/05/30 11:13:10;;;;;;;1.23;0.50;;;;;;;27.44;34.24;99659.25;5033509;28;19921;-75
2023/05/30 11:15:45;;;;;;;1.15;1.05;;;;;;;27.26;35.18;99660.50;5033443;28;20045;-75
2023/05/30 11:18:17;;;;;;;0.93;0.90;;;;;;;27.38;35.82;99664.91;5033704;28;20491;-73
2023/05/30 11:20:57;;;;;;;0.63;0.63;;;;;;;27.42;35.91;99663.78;5034080;28;20108;-75
2023/05/30 11:23:28;;;;;;;1.13;1.02;;;;;;;27.49;35.74;99667.66;5033991;28;20057;-74
2023/05/30 11:25:59;;;;;;;0.80;0.80;;;;;;;27.49;35.71;99662.41;5033581;28;20380;-74
2023/05/30 11:28:36;;;;;;;0.90;0.70;;;;;;;27.41;34.94;99659.47;5033749;28;20046;-75
2023/05/30 11:31:19;;;;;;;1.02;0.80;;;;;;;27.46;35.43;99662.63;5033435;28;20069;-75
2023/05/30 11:33:51;;;;;;;0.43;0.43;;;;;;;27.48;35.14;99676.44;5033766;28;20103;-74
2023/05/30 11:36:23;;;;;;;3.03;0.68;;;;;;;27.56;35.14;99668.91;5033419;28;20042;-75
2023/05/30 11:38:53;;;;;;;0.90;0.80;;;;;;;27.77;34.83;99667.38;5033245;28;20053;-75
2023/05/30 11:41:23;;;;;;;21.35;1.30;;;;;;;27.75;34.49;99661.38;5033173;28;20052;-74
2023/05/30 11:43:52;;;;;;;7.10;1.88;;;;;;;27.62;33.98;99659.72;5033139;28;20053;-74
2023/05/30 11:46:21;;;;;;;0.80;0.80;;;;;;;27.71;34.51;99654.69;5033757;28;20432;-75
2023/05/30 11:48:57;;;;;;;1.27;1.13;;;;;;;27.72;34.46;99647.63;5033098;28;20050;-75
2023/05/30 11:51:30;;;;;;;1.40;1.02;;;;;;;27.58;34.45;99656.50;5033095;28;20046;-75
2023/05/30 11:53:59;;;;;;;1.30;0.63;;;;;;;27.31;34.05;99662.84;5033100;28;20041;-74